sensor_id;sensor_type;location;lat;lon;timestamp;pressure;altitude;pressure_sealevel;temperature;humidity
4012;BME280;2020;48.682;9.024;2022-12-05T00:00:29;96184.97;;;-0.39;100.00
4012;BME280;2020;48.682;9.024;2022-12-05T00:02:54;96177.84;;;-0.34;100.00
4012;BME280;2020;48.682;9.024;2022-12-05T00:05:19;96186.03;;;-0.28;100.00
4012;BME280;2020;48.682;9.024;2022-12-05T00:07:45;96177.06;;;-0.21;100.00
4012;BME280;2020;48.682;9.024;2022-12-05T00:10:10;96188.41;;;-0.25;100.00
4012;BME280;2020;48.682;9.024;2022-12-05T00:12:36;96185.84;;;-0.25;100.00
4012;BME280;2020;48.682;9.024;2022-12-05T00:15:01;96184.75;;;-0.21;100.00
4012;BME280;2020;48.682;9.024;2022-12-05T00:17:26;96179.81;;;-0.24;100.00
4012;BME280;2020;48.682;9.024;2022-12-05T00:19:51;96176.88;;;-0.18;100.00
4012;BME280;2020;48.682;9.024;2022-12-05T00:22:17;96182.59;;;-0.15;100.00
4012;BME280;2020;48.682;9.024;2022-12-05T00:24:42;96171.75;;;-0.18;100.00
4012;BME280;2020;48.682;9.024;2022-12-05T00:27:07;96181.81;;;-0.15;100.00
4012;BME280;2020;48.682;9.024;2022-12-05T00:29:33;96191.66;;;-0.09;100.00
4012;BME280;2020;48.682;9.024;2022-12-05T00:31:58;96193.28;;;-0.08;100.00
4012;BME280;2020;48.682;9.024;2022-12-05T00:34:23;96198.22;;;-0.05;100.00
4012;BME280;2020;48.682;9.024;2022-12-05T00:36:49;96203.34;;;-0.05;100.00
4012;BME280;2020;48.682;9.024;2022-12-05T00:39:14;96201.88;;;-0.09;100.00
4012;BME280;2020;48.682;9.024;2022-12-05T00:41:40;96194.69;;;-0.17;100.00
4012;BME280;2020;48.682;9.024;2022-12-05T00:44:06;96199.00;;;-0.17;100.00
4012;BME280;2020;48.682;9.024;2022-12-05T00:46:33;96202.47;;;-0.18;100.00
4012;BME280;2020;48.682;9.024;2022-12-05T00:49:00;96207.97;;;-0.24;100.00
4012;BME280;2020;48.682;9.024;2022-12-05T00:51:29;96207.97;;;-0.24;100.00
4012;BME280;2020;48.682;9.024;2022-12-05T00:53:57;96212.25;;;-0.25;100.00
4012;BME280;2020;48.682;9.024;2022-12-05T00:56:25;96221.28;;;-0.19;100.00
4012;BME280;2020;48.682;9.024;2022-12-05T00:58:53;96226.94;;;-0.14;100.00
4012;BME280;2020;48.682;9.024;2022-12-05T01:01:22;96222.34;;;-0.09;100.00
4012;BME280;2020;48.682;9.024;2022-12-05T01:03:51;96227.28;;;-0.06;100.00
4012;BME280;2020;48.682;9.024;2022-12-05T01:06:17;96234.44;;;-0.11;100.00
4012;BME280;2020;48.682;9.024;2022-12-05T01:08:42;96240.38;;;-0.25;100.00
4012;BME280;2020;48.682;9.024;2022-12-05T01:11:09;96236.81;;;-0.22;100.00
4012;BME280;2020;48.682;9.024;2022-12-05T01:13:34;96239.56;;;-0.25;100.00
4012;BME280;2020;48.682;9.024;2022-12-05T01:16:00;96238.28;;;-0.18;100.00
4012;BME280;2020;48.682;9.024;2022-12-05T01:18:26;96245.22;;;-0.20;100.00
4012;BME280;2020;48.682;9.024;2022-12-05T01:20:52;96245.97;;;-0.33;100.00
4012;BME280;2020;48.682;9.024;2022-12-05T01:23:18;96241.47;;;-0.29;100.00
4012;BME280;2020;48.682;9.024;2022-12-05T01:25:46;96240.13;;;-0.20;100.00
4012;BME280;2020;48.682;9.024;2022-12-05T01:28:12;96232.78;;;-0.12;100.00
4012;BME280;2020;48.682;9.024;2022-12-05T01:30:46;96222.34;;;-0.09;100.00
4012;BME280;2020;48.682;9.024;2022-12-05T01:33:12;96234.31;;;-0.09;100.00
4012;BME280;2020;48.682;9.024;2022-12-05T01:35:39;96239.53;;;-0.11;100.00
4012;BME280;2020;48.682;9.024;2022-12-05T01:38:05;96234.81;;;-0.17;100.00
4012;BME280;2020;48.682;9.024;2022-12-05T01:40:32;96246.31;;;-0.24;100.00
4012;BME280;2020;48.682;9.024;2022-12-05T01:42:57;96259.31;;;-0.27;100.00
4012;BME280;2020;48.682;9.024;2022-12-05T01:45:36;96266.44;;;-0.33;100.00
4012;BME280;2020;48.682;9.024;2022-12-05T01:48:05;96250.72;;;-0.26;100.00
4012;BME280;2020;48.682;9.024;2022-12-05T01:50:32;96260.03;;;-0.25;100.00
4012;BME280;2020;48.682;9.024;2022-12-05T01:52:58;96264.59;;;-0.31;100.00
4012;BME280;2020;48.682;9.024;2022-12-05T01:55:24;96265.03;;;-0.24;100.00
4012;BME280;2020;48.682;9.024;2022-12-05T01:57:49;96254.00;;;-0.24;100.00
4012;BME280;2020;48.682;9.024;2022-12-05T02:00:17;96246.88;;;-0.19;100.00
4012;BME280;2020;48.682;9.024;2022-12-05T02:02:48;96261.66;;;-0.10;100.00
4012;BME280;2020;48.682;9.024;2022-12-05T02:05:25;96263.31;;;-0.09;100.00
4012;BME280;2020;48.682;9.024;2022-12-05T02:07:51;96277.09;;;-0.11;100.00
4012;BME280;2020;48.682;9.024;2022-12-05T02:10:17;96281.28;;;-0.10;100.00
4012;BME280;2020;48.682;9.024;2022-12-05T02:12:43;96284.88;;;-0.13;100.00
4012;BME280;2020;48.682;9.024;2022-12-05T02:15:39;96284.56;;;-0.08;100.00
4012;BME280;2020;48.682;9.024;2022-12-05T02:26:45;96292.19;;;-0.21;100.00
4012;BME280;2020;48.682;9.024;2022-12-05T02:29:47;96303.03;;;-0.18;100.00
4012;BME280;2020;48.682;9.024;2022-12-05T02:32:23;96317.47;;;-0.17;100.00
4012;BME280;2020;48.682;9.024;2022-12-05T02:35:02;96316.69;;;-0.17;100.00
4012;BME280;2020;48.682;9.024;2022-12-05T02:37:41;96318.31;;;-0.16;100.00
4012;BME280;2020;48.682;9.024;2022-12-05T02:43:00;96316.31;;;-0.11;100.00
4012;BME280;2020;48.682;9.024;2022-12-05T02:45:27;96319.59;;;-0.09;100.00
4012;BME280;2020;48.682;9.024;2022-12-05T02:47:55;96317.94;;;-0.10;100.00
4012;BME280;2020;48.682;9.024;2022-12-05T02:50:28;96321.41;;;-0.11;100.00
4012;BME280;2020;48.682;9.024;2022-12-05T02:52:57;96317.22;;;-0.12;100.00
4012;BME280;2020;48.682;9.024;2022-12-05T02:55:25;96306.06;;;-0.11;100.00
4012;BME280;2020;48.682;9.024;2022-12-05T02:57:55;96304.84;;;-0.05;100.00
4012;BME280;2020;48.682;9.024;2022-12-05T03:00:22;96291.97;;;-0.04;100.00
4012;BME280;2020;48.682;9.024;2022-12-05T03:02:51;96290.81;;;0.02;100.00
4012;BME280;2020;48.682;9.024;2022-12-05T03:05:29;96294.28;;;0.01;100.00
4012;BME280;2020;48.682;9.024;2022-12-05T03:07:58;96296.53;;;0.06;100.00
4012;BME280;2020;48.682;9.024;2022-12-05T03:10:27;96286.94;;;0.09;100.00
4012;BME280;2020;48.682;9.024;2022-12-05T03:12:59;96281.00;;;0.09;100.00
4012;BME280;2020;48.682;9.024;2022-12-05T03:15:31;96272.22;;;0.13;100.00
4012;BME280;2020;48.682;9.024;2022-12-05T03:18:07;96275.28;;;0.18;100.00
4012;BME280;2020;48.682;9.024;2022-12-05T03:20:44;96293.94;;;0.20;100.00
4012;BME280;2020;48.682;9.024;2022-12-05T03:23:24;96297.41;;;0.19;100.00
4012;BME280;2020;48.682;9.024;2022-12-05T03:26:05;96302.16;;;0.25;100.00
4012;BME280;2020;48.682;9.024;2022-12-05T03:31:08;96300.91;;;0.18;100.00
4012;BME280;2020;48.682;9.024;2022-12-05T03:33:40;96300.91;;;0.18;100.00
4012;BME280;2020;48.682;9.024;2022-12-05T03:36:28;96297.22;;;0.22;100.00
4012;BME280;2020;48.682;9.024;2022-12-05T03:39:25;96279.84;;;0.27;100.00
4012;BME280;2020;48.682;9.024;2022-12-05T03:41:59;96289.69;;;0.34;100.00
4012;BME280;2020;48.682;9.024;2022-12-05T03:44:32;96287.88;;;0.36;100.00
4012;BME280;2020;48.682;9.024;2022-12-05T03:47:10;96289.31;;;0.40;100.00
4012;BME280;2020;48.682;9.024;2022-12-05T03:49:47;96294.63;;;0.37;100.00
4012;BME280;2020;48.682;9.024;2022-12-05T03:52:41;96290.16;;;0.40;100.00
4012;BME280;2020;48.682;9.024;2022-12-05T03:55:11;96281.09;;;0.35;100.00
4012;BME280;2020;48.682;9.024;2022-12-05T04:00:23;96279.84;;;0.27;100.00
4012;BME280;2020;48.682;9.024;2022-12-05T04:03:06;96289.69;;;0.34;100.00
4012;BME280;2020;48.682;9.024;2022-12-05T04:05:57;96286.88;;;0.38;100.00
4012;BME280;2020;48.682;9.024;2022-12-05T04:08:49;96286.22;;;0.35;100.00
4012;BME280;2020;48.682;9.024;2022-12-05T04:11:19;96298.09;;;0.36;100.00
4012;BME280;2020;48.682;9.024;2022-12-05T04:13:51;96299.94;;;0.34;100.00
4012;BME280;2020;48.682;9.024;2022-12-05T04:16:28;96303.22;;;0.36;100.00
4012;BME280;2020;48.682;9.024;2022-12-05T04:22:18;96306.31;;;0.41;100.00
4012;BME280;2020;48.682;9.024;2022-12-05T04:24:44;96299.38;;;0.43;100.00
4012;BME280;2020;48.682;9.024;2022-12-05T04:27:49;96302.66;;;0.45;100.00
4012;BME280;2020;48.682;9.024;2022-12-05T04:30:21;96307.97;;;0.42;100.00
4012;BME280;2020;48.682;9.024;2022-12-05T04:32:59;96302.84;;;0.42;100.00
4012;BME280;2020;48.682;9.024;2022-12-05T04:35:48;96304.47;;;0.43;100.00
4012;BME280;2020;48.682;9.024;2022-12-05T04:38:45;96306.13;;;0.44;100.00
4012;BME280;2020;48.682;9.024;2022-12-05T04:41:20;96304.28;;;0.46;100.00
4012;BME280;2020;48.682;9.024;2022-12-05T04:43:48;96306.13;;;0.44;100.00
4012;BME280;2020;48.682;9.024;2022-12-05T04:46:15;96300.09;;;0.45;100.00
4012;BME280;2020;48.682;9.024;2022-12-05T04:48:45;96303.56;;;0.44;100.00
4012;BME280;2020;48.682;9.024;2022-12-05T04:51:17;96311.44;;;0.41;100.00
4012;BME280;2020;48.682;9.024;2022-12-05T04:53:43;96315.56;;;0.43;100.00
4012;BME280;2020;48.682;9.024;2022-12-05T04:56:11;96321.50;;;0.44;100.00
4012;BME280;2020;48.682;9.024;2022-12-05T04:58:40;96327.00;;;0.38;100.00
4012;BME280;2020;48.682;9.024;2022-12-05T05:01:18;96324.34;;;0.39;100.00
4012;BME280;2020;48.682;9.024;2022-12-05T05:03:53;96329.56;;;0.38;100.00
4012;BME280;2020;48.682;9.024;2022-12-05T05:06:22;96332.03;;;0.39;100.00
4012;BME280;2020;48.682;9.024;2022-12-05T05:08:50;96325.88;;;0.42;100.00
4012;BME280;2020;48.682;9.024;2022-12-05T05:11:20;96323.31;;;0.42;100.00
4012;BME280;2020;48.682;9.024;2022-12-05T05:13:47;96322.94;;;0.48;100.00
4012;BME280;2020;48.682;9.024;2022-12-05T05:16:24;96328.06;;;0.48;100.00
4012;BME280;2020;48.682;9.024;2022-12-05T05:18:51;96333.00;;;0.51;100.00
4012;BME280;2020;48.682;9.024;2022-12-05T05:21:23;96343.97;;;0.53;100.00
4012;BME280;2020;48.682;9.024;2022-12-05T05:23:50;96351.84;;;0.50;100.00
4012;BME280;2020;48.682;9.024;2022-12-05T05:26:15;96355.13;;;0.52;100.00
4012;BME280;2020;48.682;9.024;2022-12-05T05:28:41;96351.66;;;0.53;100.00
4012;BME280;2020;48.682;9.024;2022-12-05T05:31:06;96355.88;;;0.40;100.00
4012;BME280;2020;48.682;9.024;2022-12-05T05:33:33;96357.16;;;0.47;100.00
4012;BME280;2020;48.682;9.024;2022-12-05T05:36:10;96353.88;;;0.45;100.00
4012;BME280;2020;48.682;9.024;2022-12-05T05:38:37;96350.19;;;0.49;100.00
4012;BME280;2020;48.682;9.024;2022-12-05T05:41:03;96361.91;;;0.53;100.00
4012;BME280;2020;48.682;9.024;2022-12-05T05:43:29;96368.47;;;0.57;100.00
4012;BME280;2020;48.682;9.024;2022-12-05T05:45:54;96369.91;;;0.62;100.00
4012;BME280;2020;48.682;9.024;2022-12-05T05:48:19;96378.53;;;0.61;100.00
4012;BME280;2020;48.682;9.024;2022-12-05T05:50:45;96378.53;;;0.61;100.00
4012;BME280;2020;48.682;9.024;2022-12-05T05:53:10;96373.22;;;0.64;100.00
4012;BME280;2020;48.682;9.024;2022-12-05T05:55:41;96361.88;;;0.68;100.00
4012;BME280;2020;48.682;9.024;2022-12-05T05:58:07;96364.25;;;0.71;100.00
4012;BME280;2020;48.682;9.024;2022-12-05T06:00:32;96355.66;;;0.72;100.00
4012;BME280;2020;48.682;9.024;2022-12-05T06:02:57;96348.69;;;0.74;100.00
4012;BME280;2020;48.682;9.024;2022-12-05T06:05:23;96353.63;;;0.77;100.00
4012;BME280;2020;48.682;9.024;2022-12-05T06:07:48;96359.34;;;0.81;100.00
4012;BME280;2020;48.682;9.024;2022-12-05T06:10:13;96366.94;;;0.82;100.00
4012;BME280;2020;48.682;9.024;2022-12-05T06:12:39;96362.94;;;0.78;100.00
4012;BME280;2020;48.682;9.024;2022-12-05T06:15:04;96360.97;;;0.69;100.00
4012;BME280;2020;48.682;9.024;2022-12-05T06:17:30;96371.94;;;0.71;100.00
4012;BME280;2020;48.682;9.024;2022-12-05T06:19:55;96393.16;;;0.73;100.00
4012;BME280;2020;48.682;9.024;2022-12-05T06:22:21;96403.41;;;0.73;100.00
4012;BME280;2020;48.682;9.024;2022-12-05T06:24:46;96405.06;;;0.74;100.00
4012;BME280;2020;48.682;9.024;2022-12-05T06:27:11;96408.00;;;0.68;100.00
4012;BME280;2020;48.682;9.024;2022-12-05T06:29:37;96398.81;;;0.64;100.00
4012;BME280;2020;48.682;9.024;2022-12-05T06:32:02;96406.50;;;0.64;100.00
4012;BME280;2020;48.682;9.024;2022-12-05T06:34:27;96414.91;;;0.66;100.00
4012;BME280;2020;48.682;9.024;2022-12-05T06:36:53;96416.41;;;0.70;100.00
4012;BME280;2020;48.682;9.024;2022-12-05T06:39:18;96415.38;;;0.72;100.00
4012;BME280;2020;48.682;9.024;2022-12-05T06:41:43;96423.19;;;0.71;100.00
4012;BME280;2020;48.682;9.024;2022-12-05T06:44:09;96428.50;;;0.68;100.00
4012;BME280;2020;48.682;9.024;2022-12-05T06:46:34;96420.81;;;0.68;100.00
4012;BME280;2020;48.682;9.024;2022-12-05T06:48:59;96412.19;;;0.69;100.00
4012;BME280;2020;48.682;9.024;2022-12-05T06:51:24;96420.63;;;0.71;100.00
4012;BME280;2020;48.682;9.024;2022-12-05T06:53:50;96423.19;;;0.71;100.00
4012;BME280;2020;48.682;9.024;2022-12-05T06:56:18;96423.91;;;0.73;100.00
4012;BME280;2020;48.682;9.024;2022-12-05T06:58:48;96418.78;;;0.73;100.00
4012;BME280;2020;48.682;9.024;2022-12-05T07:01:16;96414.91;;;0.80;100.00
4012;BME280;2020;48.682;9.024;2022-12-05T07:04:03;96414.06;;;0.80;100.00
4012;BME280;2020;48.682;9.024;2022-12-05T07:06:29;96418.94;;;0.84;100.00
4012;BME280;2020;48.682;9.024;2022-12-05T07:08:54;96422.22;;;0.86;100.00
4012;BME280;2020;48.682;9.024;2022-12-05T07:11:19;96426.44;;;0.87;100.00
4012;BME280;2020;48.682;9.024;2022-12-05T07:13:45;96445.28;;;0.86;100.00
4012;BME280;2020;48.682;9.024;2022-12-05T07:16:10;96447.13;;;0.84;100.00
4012;BME280;2020;48.682;9.024;2022-12-05T07:18:36;96452.44;;;0.81;100.00
4012;BME280;2020;48.682;9.024;2022-12-05T07:21:04;96448.94;;;0.82;100.00
4012;BME280;2020;48.682;9.024;2022-12-05T07:23:30;96452.78;;;0.90;100.00
4012;BME280;2020;48.682;9.024;2022-12-05T07:25:56;96451.84;;;0.91;100.00
4012;BME280;2020;48.682;9.024;2022-12-05T07:28:22;96451.47;;;0.97;100.00
4012;BME280;2020;48.682;9.024;2022-12-05T07:30:47;96448.72;;;1.00;100.00
4012;BME280;2020;48.682;9.024;2022-12-05T07:33:12;96451.09;;;1.03;100.00
4012;BME280;2020;48.682;9.024;2022-12-05T07:35:38;96454.38;;;1.05;100.00
4012;BME280;2020;48.682;9.024;2022-12-05T07:38:03;96450.50;;;1.12;100.00
4012;BME280;2020;48.682;9.024;2022-12-05T07:40:28;96454.00;;;1.11;100.00
4012;BME280;2020;48.682;9.024;2022-12-05T07:42:54;96457.09;;;1.16;100.00
4012;BME280;2020;48.682;9.024;2022-12-05T07:45:20;96461.81;;;1.23;100.00
4012;BME280;2020;48.682;9.024;2022-12-05T07:47:45;96458.34;;;1.24;100.00
4012;BME280;2020;48.682;9.024;2022-12-05T07:50:11;96463.28;;;1.27;100.00
4012;BME280;2020;48.682;9.024;2022-12-05T07:52:37;96454.84;;;1.25;100.00
4012;BME280;2020;48.682;9.024;2022-12-05T07:55:03;96456.09;;;1.32;100.00
4012;BME280;2020;48.682;9.024;2022-12-05T07:57:29;96460.13;;;1.36;100.00
4012;BME280;2020;48.682;9.024;2022-12-05T07:59:55;96469.25;;;1.40;100.00
4012;BME280;2020;48.682;9.024;2022-12-05T08:02:20;96470.72;;;1.44;100.00
4012;BME280;2020;48.682;9.024;2022-12-05T08:04:45;96460.66;;;1.41;100.00
4012;BME280;2020;48.682;9.024;2022-12-05T08:07:11;96459.94;;;1.39;100.00
4012;BME280;2020;48.682;9.024;2022-12-05T08:09:36;96468.47;;;1.40;100.00
4012;BME280;2020;48.682;9.024;2022-12-05T08:12:01;96479.97;;;1.47;100.00
4012;BME280;2020;48.682;9.024;2022-12-05T08:14:27;96482.63;;;1.45;100.00
4012;BME280;2020;48.682;9.024;2022-12-05T08:16:52;96486.09;;;1.44;100.00
4012;BME280;2020;48.682;9.024;2022-12-05T08:19:18;96485.81;;;1.49;100.00
4012;BME280;2020;48.682;9.024;2022-12-05T08:21:43;96492.47;;;1.52;100.00
4012;BME280;2020;48.682;9.024;2022-12-05T08:24:09;96493.13;;;1.55;100.00
4012;BME280;2020;48.682;9.024;2022-12-05T08:26:36;96495.78;;;1.54;100.00
4012;BME280;2020;48.682;9.024;2022-12-05T08:29:06;96493.94;;;1.56;100.00
4012;BME280;2020;48.682;9.024;2022-12-05T08:31:34;96491.88;;;1.61;100.00
4012;BME280;2020;48.682;9.024;2022-12-05T08:34:00;96507.28;;;1.61;100.00
4012;BME280;2020;48.682;9.024;2022-12-05T08:36:27;96500.94;;;1.67;100.00
4012;BME280;2020;48.682;9.024;2022-12-05T08:39:00;96503.59;;;1.65;100.00
4012;BME280;2020;48.682;9.024;2022-12-05T08:41:26;96515.13;;;1.72;100.00
4012;BME280;2020;48.682;9.024;2022-12-05T08:44:04;96517.59;;;1.74;100.00
4012;BME280;2020;48.682;9.024;2022-12-05T08:46:32;96516.34;;;1.80;100.00
4012;BME280;2020;48.682;9.024;2022-12-05T08:48:58;96507.53;;;1.84;100.00
4012;BME280;2020;48.682;9.024;2022-12-05T08:51:23;96513.19;;;1.89;100.00
4012;BME280;2020;48.682;9.024;2022-12-05T08:53:49;96506.41;;;1.88;100.00
4012;BME280;2020;48.682;9.024;2022-12-05T08:56:14;96512.91;;;1.94;100.00
4012;BME280;2020;48.682;9.024;2022-12-05T08:58:40;96523.78;;;1.97;100.00
4012;BME280;2020;48.682;9.024;2022-12-05T09:03:32;96512.53;;;2.13;100.00
4012;BME280;2020;48.682;9.024;2022-12-05T09:06:19;96517.47;;;2.16;100.00
4012;BME280;2020;48.682;9.024;2022-12-05T09:08:45;96524.44;;;2.14;100.00
4012;BME280;2020;48.682;9.024;2022-12-05T09:11:13;96525.88;;;2.18;100.00
4012;BME280;2020;48.682;9.024;2022-12-05T09:13:39;96533.59;;;2.18;100.00
4012;BME280;2020;48.682;9.024;2022-12-05T09:18:34;96544.19;;;2.26;100.00
4012;BME280;2020;48.682;9.024;2022-12-05T09:21:10;96550.25;;;2.25;100.00
4012;BME280;2020;48.682;9.024;2022-12-05T09:23:36;96555.38;;;2.25;100.00
4012;BME280;2020;48.682;9.024;2022-12-05T09:26:01;96557.03;;;2.26;100.00
4012;BME280;2020;48.682;9.024;2022-12-05T09:28:28;96566.25;;;2.29;100.00
4012;BME280;2020;48.682;9.024;2022-12-05T09:30:58;96560.00;;;2.33;100.00
4012;BME280;2020;48.682;9.024;2022-12-05T09:33:25;96565.97;;;2.33;100.00
4012;BME280;2020;48.682;9.024;2022-12-05T09:35:50;96565.97;;;2.33;100.00
4012;BME280;2020;48.682;9.024;2022-12-05T09:38:16;96564.13;;;2.36;100.00
4012;BME280;2020;48.682;9.024;2022-12-05T09:40:41;96571.72;;;2.37;100.00
4012;BME280;2020;48.682;9.024;2022-12-05T09:43:15;96563.72;;;2.42;100.00
4012;BME280;2020;48.682;9.024;2022-12-05T09:45:54;96568.66;;;2.45;100.00
4012;BME280;2020;48.682;9.024;2022-12-05T09:48:22;96575.00;;;2.52;100.00
4012;BME280;2020;48.682;9.024;2022-12-05T09:50:58;96572.34;;;2.54;100.00
4012;BME280;2020;48.682;9.024;2022-12-05T09:53:33;96568.75;;;2.56;100.00
4012;BME280;2020;48.682;9.024;2022-12-05T09:58:42;96564.13;;;2.61;99.96
4012;BME280;2020;48.682;9.024;2022-12-05T10:01:42;96567.41;;;2.63;99.46
4012;BME280;2020;48.682;9.024;2022-12-05T10:10:13;96573.78;;;2.71;99.45
4012;BME280;2020;48.682;9.024;2022-12-05T10:15:41;96570.59;;;2.80;100.00
4012;BME280;2020;48.682;9.024;2022-12-05T10:18:10;96568.72;;;2.82;99.41
4012;BME280;2020;48.682;9.024;2022-12-05T10:20:49;96568.63;;;2.84;98.82
4012;BME280;2020;48.682;9.024;2022-12-05T10:23:21;96560.59;;;2.88;98.51
4012;BME280;2020;48.682;9.024;2022-12-05T10:25:51;96548.25;;;2.93;98.18
4012;BME280;2020;48.682;9.024;2022-12-05T10:28:42;96562.81;;;3.06;98.28
4012;BME280;2020;48.682;9.024;2022-12-05T10:31:13;96559.75;;;3.14;98.24
4012;BME280;2020;48.682;9.024;2022-12-05T10:33:46;96557.44;;;3.22;96.78
4012;BME280;2020;48.682;9.024;2022-12-05T10:36:14;96552.69;;;3.29;96.13
4012;BME280;2020;48.682;9.024;2022-12-05T10:38:41;96551.03;;;3.28;94.44
4012;BME280;2020;48.682;9.024;2022-12-05T10:41:10;96548.47;;;3.28;93.76
4012;BME280;2020;48.682;9.024;2022-12-05T10:43:39;96551.25;;;3.25;93.73
4012;BME280;2020;48.682;9.024;2022-12-05T10:46:04;96551.47;;;3.21;95.27
4012;BME280;2020;48.682;9.024;2022-12-05T10:48:34;96546.09;;;3.25;95.24
4012;BME280;2020;48.682;9.024;2022-12-05T10:51:00;96551.47;;;3.21;93.76
4012;BME280;2020;48.682;9.024;2022-12-05T10:53:49;96551.03;;;3.28;95.99
4012;BME280;2020;48.682;9.024;2022-12-05T10:56:44;96558.88;;;3.26;95.74
4012;BME280;2020;48.682;9.024;2022-12-05T10:59:12;96554.31;;;3.30;97.08
4012;BME280;2020;48.682;9.024;2022-12-05T11:01:45;96557.13;;;3.27;94.23
4012;BME280;2020;48.682;9.024;2022-12-05T11:07:04;96551.03;;;3.28;95.50
4012;BME280;2020;48.682;9.024;2022-12-05T11:09:35;96549.19;;;3.30;93.57
4012;BME280;2020;48.682;9.024;2022-12-05T11:12:15;96546.72;;;3.28;92.76
4012;BME280;2020;48.682;9.024;2022-12-05T11:17:54;96535.09;;;3.60;93.17
4012;BME280;2020;48.682;9.024;2022-12-05T11:22:50;96529.31;;;4.16;88.86
4012;BME280;2020;48.682;9.024;2022-12-05T11:25:32;96534.84;;;4.34;87.36
4012;BME280;2020;48.682;9.024;2022-12-05T11:27:59;96537.66;;;4.43;87.97
4012;BME280;2020;48.682;9.024;2022-12-05T11:30:27;96533.19;;;4.33;85.13
4012;BME280;2020;48.682;9.024;2022-12-05T11:33:18;96537.41;;;4.23;86.75
4012;BME280;2020;48.682;9.024;2022-12-05T11:35:45;96537.16;;;4.26;86.97
4012;BME280;2020;48.682;9.024;2022-12-05T11:38:11;96529.66;;;4.12;85.98
4012;BME280;2020;48.682;9.024;2022-12-05T11:51:38;96534.28;;;3.95;87.25
4012;BME280;2020;48.682;9.024;2022-12-05T11:57:09;96538.06;;;4.14;85.95
4012;BME280;2020;48.682;9.024;2022-12-05T12:04:58;96535.28;;;4.17;86.96
4012;BME280;2020;48.682;9.024;2022-12-05T12:10:20;96527.44;;;3.83;85.71
4012;BME280;2020;48.682;9.024;2022-12-05T12:12:59;96524.44;;;3.89;86.61
4012;BME280;2020;48.682;9.024;2022-12-05T12:21:13;96521.16;;;4.68;83.79
4012;BME280;2020;48.682;9.024;2022-12-05T12:23:47;96521.03;;;5.04;82.84
4012;BME280;2020;48.682;9.024;2022-12-05T12:26:52;96523.63;;;4.92;80.28
4012;BME280;2020;48.682;9.024;2022-12-05T12:32:34;96523.66;;;4.70;83.82
4012;BME280;2020;48.682;9.024;2022-12-05T12:40:52;96526.16;;;4.35;84.28
4012;BME280;2020;48.682;9.024;2022-12-05T12:51:30;96534.53;;;4.50;84.70
4012;BME280;2020;48.682;9.024;2022-12-05T12:54:15;96538.59;;;4.53;84.49
4012;BME280;2020;48.682;9.024;2022-12-05T13:01:55;96534.38;;;4.41;84.39
4012;BME280;2020;48.682;9.024;2022-12-05T13:04:27;96536.72;;;4.32;82.90
4012;BME280;2020;48.682;9.024;2022-12-05T13:07:09;96539.25;;;4.21;84.37
4012;BME280;2020;48.682;9.024;2022-12-05T13:09:44;96534.53;;;4.03;84.77
4012;BME280;2020;48.682;9.024;2022-12-05T13:12:13;96528.22;;;4.07;84.83
4012;BME280;2020;48.682;9.024;2022-12-05T13:14:48;96529.13;;;3.95;83.43
4012;BME280;2020;48.682;9.024;2022-12-05T13:17:18;96526.81;;;4.03;86.55
4012;BME280;2020;48.682;9.024;2022-12-05T13:19:48;96524.00;;;4.06;84.85
4012;BME280;2020;48.682;9.024;2022-12-05T13:22:15;96525.44;;;4.22;85.67
4012;BME280;2020;48.682;9.024;2022-12-05T13:24:42;96525.91;;;4.16;83.06
4012;BME280;2020;48.682;9.024;2022-12-05T13:27:15;96531.56;;;4.32;84.84
4012;BME280;2020;48.682;9.024;2022-12-05T13:29:59;96528.97;;;4.21;83.82
4012;BME280;2020;48.682;9.024;2022-12-05T13:32:31;96526.50;;;4.19;82.50
4012;BME280;2020;48.682;9.024;2022-12-05T13:35:25;96521.66;;;4.03;82.74
4012;BME280;2020;48.682;9.024;2022-12-05T13:38:32;96523.97;;;3.95;83.50
4012;BME280;2020;48.682;9.024;2022-12-05T13:41:18;96527.16;;;3.99;83.50
4012;BME280;2020;48.682;9.024;2022-12-05T13:44:03;96530.31;;;4.02;82.56
4012;BME280;2020;48.682;9.024;2022-12-05T13:46:38;96526.09;;;4.01;83.17
4012;BME280;2020;48.682;9.024;2022-12-05T13:49:24;96530.56;;;3.99;83.06
4012;BME280;2020;48.682;9.024;2022-12-05T13:51:53;96532.19;;;4.00;82.46
4012;BME280;2020;48.682;9.024;2022-12-05T13:54:24;96536.63;;;3.98;83.53
4012;BME280;2020;48.682;9.024;2022-12-05T13:56:57;96536.16;;;3.93;82.63
4012;BME280;2020;48.682;9.024;2022-12-05T14:15:29;96545.06;;;4.00;83.42
4012;BME280;2020;48.682;9.024;2022-12-05T14:18:00;96542.25;;;4.03;83.20
4012;BME280;2020;48.682;9.024;2022-12-05T14:33:39;96551.59;;;3.93;81.93
4012;BME280;2020;48.682;9.024;2022-12-05T14:36:06;96566.84;;;3.96;82.08
4012;BME280;2020;48.682;9.024;2022-12-05T14:38:33;96563.53;;;3.94;82.25
4012;BME280;2020;48.682;9.024;2022-12-05T14:41:32;96564.44;;;3.82;81.24
4012;BME280;2020;48.682;9.024;2022-12-05T14:44:00;96554.34;;;3.78;81.99
4012;BME280;2020;48.682;9.024;2022-12-05T14:46:29;96558.34;;;3.83;83.46
4012;BME280;2020;48.682;9.024;2022-12-05T14:48:55;96563.59;;;3.81;82.33
4012;BME280;2020;48.682;9.024;2022-12-05T14:54:10;96559.72;;;3.75;83.83
4012;BME280;2020;48.682;9.024;2022-12-05T14:56:41;96568.16;;;3.77;82.86
4012;BME280;2020;48.682;9.024;2022-12-05T15:01:54;96556.44;;;3.73;82.11
4012;BME280;2020;48.682;9.024;2022-12-05T15:04:45;96553.38;;;3.68;83.65
4012;BME280;2020;48.682;9.024;2022-12-05T15:07:19;96556.63;;;3.59;82.47
4012;BME280;2020;48.682;9.024;2022-12-05T15:09:59;96562.69;;;3.58;83.28
4012;BME280;2020;48.682;9.024;2022-12-05T15:12:32;96558.34;;;3.58;83.74
4012;BME280;2020;48.682;9.024;2022-12-05T15:17:45;96550.97;;;3.54;83.80
4012;BME280;2020;48.682;9.024;2022-12-05T15:20:20;96548.13;;;3.45;82.92
4012;BME280;2020;48.682;9.024;2022-12-05T15:22:47;96556.78;;;3.44;82.90
4012;BME280;2020;48.682;9.024;2022-12-05T15:25:14;96552.44;;;3.45;84.17
4012;BME280;2020;48.682;9.024;2022-12-05T15:27:39;96546.69;;;3.41;85.13
4012;BME280;2020;48.682;9.024;2022-12-05T15:30:12;96560.28;;;3.43;85.95
4012;BME280;2020;48.682;9.024;2022-12-05T15:32:39;96557.00;;;3.41;86.51
4012;BME280;2020;48.682;9.024;2022-12-05T15:35:05;96559.06;;;3.36;85.74
4012;BME280;2020;48.682;9.024;2022-12-05T15:40:02;96557.94;;;3.27;85.06
4012;BME280;2020;48.682;9.024;2022-12-05T15:42:52;96559.47;;;3.30;85.80
4012;BME280;2020;48.682;9.024;2022-12-05T15:45:28;96561.53;;;3.25;85.64
4012;BME280;2020;48.682;9.024;2022-12-05T15:47:56;96564.84;;;3.27;86.69
4012;BME280;2020;48.682;9.024;2022-12-05T15:50:42;96565.03;;;3.24;85.98
4012;BME280;2020;48.682;9.024;2022-12-05T15:53:16;96569.25;;;3.25;86.77
4012;BME280;2020;48.682;9.024;2022-12-05T15:55:46;96573.47;;;3.26;86.29